Tropical Cyclones
[Index]
Main Index Home Page Stock Weather Photos Extreme Storms Discussion Storm News and Storm Chasing Reports Tropical Cyclones / Hurricanes / Typhoons Weather Data and Links Wild Fires / Bushfires Weather Observation Techniques Weather Picture Catalogue Tornado Pictures and Reports Stock Video Footage and DVDs for sale
Season 2006-2007 Tropical Cyclone BONDO Track Map
Season 2006-2007 Summaries (Operational Data): [AU] [SIO] [SPAC] [SH]
<<- Previous TC | 2006-2007 Season | Next TC ->>

click for intensity scale information  Lat/long Grid: Show Hide

 Date Labels: Show Hide

Operational Tropical Cyclone Data : JTWC Advisories

Name: BONDO
Number: 0705

17 Dec 2006 00:00 UTC to 26 Dec 2006 12:00 UTC

    date/time    lat    long     hPa   cat  kts
2006-12-17 00    9.1    65.8                             
2006-12-17 06    9.7    65.1                             
2006-12-17 12   10.3    65.5    1002         25          
2006-12-17 18   10.6    64.7                             
2006-12-18 00   10.8    64.5    1003         25          
2006-12-18 06   11.0    64.0    1000         25          
2006-12-18 12   10.8    63.1    1000         25          
2006-12-18 18   11.0    61.6     998         30          
2006-12-19 00   11.0    60.5     992    1    40          
2006-12-19 06   10.5    59.5     976    2    55          
2006-12-19 12   10.7    58.5     950    3    85          
2006-12-19 18   10.7    57.4     925    4   105          
2006-12-20 00   10.8    56.2     915    5   110          
2006-12-20 06   10.5    55.0     920    5   110          
2006-12-20 12   10.3    54.0     930    4   100          
2006-12-20 18   10.0    53.1     940    4    90          
2006-12-21 00    9.7    52.2     940    4    90          
2006-12-21 06    9.5    51.5     935    4   100          
2006-12-21 12    9.6    50.9     945    4    90          
2006-12-21 18    9.9    50.5     955    3    80          
2006-12-22 00   10.2    50.3     970    3    65          
2006-12-22 06   10.2    50.0     980    2    55          
2006-12-22 12   10.5    49.7     980    2    55          
2006-12-22 18   10.5    50.2     980    2    55          
2006-12-23 00   10.8    50.3     983    2    50          
2006-12-23 06   11.4    49.6     980    2    55          
2006-12-23 12   11.7    49.1     976    2    60          
2006-12-23 18   11.8    48.7     975    2    60          
2006-12-24 00   12.3    48.6     970    3    70          
2006-12-24 06   12.7    48.0     965    3    75          
2006-12-24 12   13.2    47.7     960    3    75          
2006-12-24 18   13.5    47.5     960    3    75          
2006-12-25 00   14.2    47.5     960    3    75          
2006-12-25 06   14.7    46.9     965    3    70          
2006-12-25 12   15.2    46.4     975    2    60          
2006-12-25 18   16.3    46.2            1    45          
2006-12-26 00   17.9    45.9                 30          
2006-12-26 06   18.5    45.2                 25          
2006-12-26 12   19.9    43.6    1003         25          
Winds are 10-min average.

Tropical cyclone tracks developed by Michael Bath using operational warnings and advisories and Google Maps.


[Australian Severe Weather index] [Copyright Notice] [Email Contacts] [Search This Site] [Privacy Policy]
Document: tropical_cyclone_bondo.htm Updated: 28 May 2013